Time;durP1;ratioP1;P1;durP2;ratioP2;P2;SDS_P1;SDS_P2;PMS_P1;PMS_P2;Temp;Humidity;BMP_temperature;BMP_pressure;BME280_temperature;BME280_humidity;BME280_pressure;Samples;Min_cycle;Max_cycle;Signal;HPM_P1;HPM_P2
2021/09/01 00:00:08;;;;;;;;;14.25;12.75;;;;;20.26;55.65;102327.31;5056751;28;45447;-80
2021/09/01 00:02:34;;;;;;;;;14.25;14.25;;;;;20.22;55.77;102331.59;5056342;28;45377;-80
2021/09/01 00:05:00;;;;;;;;;15.25;14.50;;;;;20.20;56.19;102332.41;5056350;28;45424;-79
2021/09/01 00:07:25;;;;;;;;;15.25;14.00;;;;;20.16;56.64;102331.44;5056358;28;45371;-80
2021/09/01 00:09:51;;;;;;;;;19.50;14.75;;;;;20.13;56.13;102336.59;5056589;28;45320;-79
2021/09/01 00:12:17;;;;;;;;;18.75;13.00;;;;;20.15;56.54;102329.66;5056176;28;45777;-80
2021/09/01 00:14:42;;;;;;;;;15.00;14.25;;;;;20.16;56.36;102328.81;5056181;28;45427;-80
2021/09/01 00:17:08;;;;;;;;;16.25;15.25;;;;;20.15;57.00;102332.28;5055474;28;45504;-80
2021/09/01 00:19:34;;;;;;;;;16.00;13.00;;;;;20.12;56.76;102332.16;5056875;28;45324;-80
2021/09/01 00:22:00;;;;;;;;;14.50;14.50;;;;;20.09;56.85;102337.34;5056596;28;45820;-80
2021/09/01 00:24:25;;;;;;;;;16.50;13.75;;;;;20.05;56.76;102335.47;5055891;28;45465;-80
2021/09/01 00:26:51;;;;;;;;;19.25;16.00;;;;;20.04;57.24;102329.31;5059584;28;45285;-80
2021/09/01 00:29:16;;;;;;;;;15.25;11.25;;;;;20.03;57.10;102327.53;5059786;28;45513;-80
2021/09/01 00:31:42;;;;;;;;;20.50;14.75;;;;;20.04;57.10;102333.69;5059420;28;45324;-80
2021/09/01 00:34:08;;;;;;;;;16.50;15.50;;;;;20.02;57.09;102330.13;5041981;28;45339;-80
2021/09/01 00:36:33;;;;;;;;;16.75;14.75;;;;;20.02;56.63;102333.66;5060516;28;45348;-79
2021/09/01 00:38:59;;;;;;;;;14.25;13.00;;;;;20.01;56.81;102334.50;5060872;28;45432;-80
2021/09/01 00:41:27;;;;;;;;;14.25;14.25;;;;;20.03;56.82;102339.78;5059457;28;46073;-80
2021/09/01 00:43:54;;;;;;;;;16.75;15.75;;;;;20.01;57.21;102337.13;5059291;28;45755;-80
2021/09/01 00:46:22;;;;;;;;;17.00;15.75;;;;;19.99;56.85;102340.53;5058285;28;45382;-79
2021/09/01 00:48:50;;;;;;;;;16.50;14.00;;;;;19.94;57.35;102338.66;5059663;28;45637;-80
2021/09/01 00:51:16;;;;;;;;;17.75;15.75;;;;;19.90;57.50;102343.78;5041216;28;47352;-80
2021/09/01 00:53:44;;;;;;;;;20.25;17.00;;;;;19.89;57.75;102342.00;5058879;28;45448;-80
2021/09/01 00:56:21;;;;;;;;;18.75;13.50;;;;;19.87;57.43;102341.06;5059375;28;45320;-80
2021/09/01 00:58:48;;;;;;;;;19.25;17.00;;;;;19.83;57.19;102341.75;5059482;28;45307;-80
2021/09/01 01:01:15;;;;;;;;;16.00;14.50;;;;;19.78;58.04;102344.25;5059033;28;45399;-80
2021/09/01 01:03:47;;;;;;;;;17.50;16.75;;;;;19.76;57.99;102341.59;5058889;28;45453;-80
2021/09/01 01:06:15;;;;;;;;;16.25;14.50;;;;;19.75;57.78;102339.78;5058930;28;45281;-80
2021/09/01 01:08:40;;;;;;;;;24.25;15.50;;;;;19.75;58.02;102341.53;5058760;28;45495;-80
2021/09/01 01:11:12;;;;;;;;;16.25;15.25;;;;;19.74;57.37;102338.00;5058293;28;45402;-80
2021/09/01 01:13:38;;;;;;;;;21.75;18.00;;;;;19.74;57.47;102347.66;5040313;28;45647;-79
2021/09/01 01:16:04;;;;;;;;;20.00;16.75;;;;;19.68;58.27;102345.72;5058713;28;45351;-80
2021/09/01 01:18:30;;;;;;;;;18.50;17.00;;;;;19.65;58.07;102338.59;5059417;28;45331;-80
2021/09/01 01:20:56;;;;;;;;;23.00;17.25;;;;;19.61;58.40;102347.25;5058637;28;46129;-80
2021/09/01 01:23:23;;;;;;;;;22.50;16.50;;;;;19.58;58.16;102351.53;5040491;28;45418;-80
2021/09/01 01:25:50;;;;;;;;;20.25;19.25;;;;;19.54;58.37;102339.13;5039775;28;45333;-80
2021/09/01 01:28:16;;;;;;;;;16.50;14.75;;;;;19.53;58.58;102335.59;5059087;28;45442;-80
2021/09/01 01:30:42;;;;;;;;;19.00;15.50;;;;;19.54;58.65;102329.53;5058516;28;45795;-80
2021/09/01 01:33:08;;;;;;;;;18.50;16.50;;;;;19.53;58.38;102332.06;5058471;28;45421;-80
2021/09/01 01:35:42;;;;;;;;;17.25;15.50;;;;;19.52;58.55;102332.91;5058338;28;45423;-80
2021/09/01 01:38:15;;;;;;;;;17.50;16.00;;;;;19.45;58.46;102329.19;5057887;28;45393;-80
2021/09/01 01:40:42;;;;;;;;;20.75;18.75;;;;;19.40;58.73;102328.16;5058548;28;45832;-80
2021/09/01 01:43:08;;;;;;;;;20.75;19.25;;;;;19.39;58.45;102339.50;5040593;28;45378;-80
2021/09/01 01:45:44;;;;;;;;;18.00;14.50;;;;;19.33;59.20;102335.81;5058665;28;45228;-80
2021/09/01 01:48:12;;;;;;;;;24.25;16.75;;;;;19.35;59.19;102335.91;5058907;28;45305;-80
2021/09/01 01:50:39;;;;;;;;;17.25;15.25;;;;;19.37;58.68;102334.22;5040066;28;47406;-80
2021/09/01 01:53:06;;;;;;;;;24.50;16.50;;;;;19.38;59.08;102336.00;5058445;28;45705;-80
2021/09/01 01:55:33;;;;;;;;;22.50;17.75;;;;;19.40;58.80;102333.41;5058347;28;45381;-80
2021/09/01 01:57:58;;;;;;;;;27.25;19.50;;;;;19.40;58.90;102336.03;5058496;28;45248;-80
2021/09/01 02:00:24;;;;;;;;;21.75;18.00;;;;;19.39;58.93;102335.13;5058000;28;45910;-80
2021/09/01 02:02:50;;;;;;;;;25.25;19.25;;;;;19.41;58.60;102333.47;5058107;28;46027;-80
2021/09/01 02:05:16;;;;;;;;;17.75;17.50;;;;;19.40;59.09;102333.41;5057647;28;45546;-80
2021/09/01 02:07:42;;;;;;;;;24.50;20.50;;;;;19.42;58.76;102337.88;5058243;28;45513;-80
2021/09/01 02:10:09;;;;;;;;;22.00;19.00;;;;;19.43;58.74;102338.78;5039817;28;47689;-80
2021/09/01 02:12:37;;;;;;;;;22.00;19.25;;;;;19.38;58.60;102337.72;5059564;28;45251;-81
2021/09/01 02:15:04;;;;;;;;;25.00;21.00;;;;;19.31;59.04;102332.28;5059727;28;45790;-80
2021/09/01 02:17:30;;;;;;;;;24.50;18.50;;;;;19.26;59.28;102336.47;5059812;28;45463;-80
2021/09/01 02:19:56;;;;;;;;;21.75;16.25;;;;;19.18;58.90;102348.47;5057973;28;45338;-80
2021/09/01 02:22:22;;;;;;;;;19.75;18.50;;;;;19.15;59.16;102338.75;5039867;28;45957;-80
2021/09/01 02:24:48;;;;;;;;;20.75;18.50;;;;;19.13;59.12;102343.06;5057184;28;45472;-80
2021/09/01 02:27:14;;;;;;;;;24.75;22.50;;;;;19.12;59.48;102341.28;5057886;28;45237;-80
2021/09/01 02:29:40;;;;;;;;;23.25;19.00;;;;;19.09;59.31;102349.03;5056197;28;45792;-80
2021/09/01 02:32:07;;;;;;;;;19.25;17.00;;;;;19.10;59.42;102344.69;5057934;28;45369;-80
2021/09/01 02:34:33;;;;;;;;;17.75;15.75;;;;;19.11;59.12;102349.09;5057438;28;45360;-80
2021/09/01 02:36:58;;;;;;;;;24.75;20.75;;;;;19.13;59.64;102350.03;5057899;28;45384;-80
2021/09/01 02:39:24;;;;;;;;;23.75;20.25;;;;;19.13;59.05;102344.78;5039565;28;46387;-80
2021/09/01 02:41:50;;;;;;;;;24.75;21.25;;;;;19.09;59.73;102343.78;5058071;28;45360;-79
2021/09/01 02:44:16;;;;;;;;;25.25;22.75;;;;;19.08;59.72;102346.38;5058432;28;45444;-79
2021/09/01 02:46:42;;;;;;;;;20.75;20.50;;;;;19.03;59.14;102344.47;5057934;28;45260;-80
2021/09/01 02:49:07;;;;;;;;;24.00;21.25;;;;;19.05;59.64;102349.78;5057459;28;45272;-80
2021/09/01 02:51:33;;;;;;;;;19.75;19.75;;;;;19.08;59.36;102352.50;5057363;28;45563;-82
2021/09/01 02:53:59;;;;;;;;;24.00;20.25;;;;;19.09;59.36;102349.03;5057595;28;45419;-82
2021/09/01 02:56:24;;;;;;;;;21.25;17.25;;;;;19.12;59.67;102359.66;5056813;28;45601;-82
2021/09/01 02:58:50;;;;;;;;;25.75;21.25;;;;;19.13;59.20;102355.28;5057199;28;45896;-82
2021/09/01 03:01:15;;;;;;;;;13.00;13.00;;;;;19.10;58.99;102353.44;5057330;28;45340;-81
2021/09/01 03:03:41;;;;;;;;;24.75;19.25;;;;;19.13;59.24;102352.66;5056930;28;45186;-82
2021/09/01 03:06:06;;;;;;;;;24.00;22.00;;;;;19.18;59.22;102351.97;5057514;28;45186;-81
2021/09/01 03:08:32;;;;;;;;;19.50;18.00;;;;;19.23;59.22;102351.25;5057109;28;46058;-81
2021/09/01 03:10:58;;;;;;;;;26.50;22.00;;;;;19.26;58.77;102357.47;5059542;28;45434;-81
2021/09/01 03:13:24;;;;;;;;;22.00;21.00;;;;;19.32;58.61;102359.41;5058111;28;45355;-82
2021/09/01 03:15:50;;;;;;;;;23.25;17.50;;;;;19.36;58.82;102363.94;5038217;28;45811;-83
2021/09/01 03:18:15;;;;;;;;;16.00;16.00;;;;;19.37;58.64;102365.75;5056291;28;45479;-82
2021/09/01 03:20:41;;;;;;;;;18.00;17.25;;;;;19.39;58.52;102360.53;5057256;28;45562;-82
2021/09/01 03:23:06;;;;;;;;;17.50;14.50;;;;;19.35;58.60;102356.91;5057030;28;45318;-82
2021/09/01 03:25:32;;;;;;;;;20.50;16.00;;;;;19.32;58.07;102355.09;5056865;28;45562;-82
2021/09/01 03:28:01;;;;;;;;;22.50;18.25;;;;;19.27;58.68;102351.41;5056603;28;45365;-82
2021/09/01 03:30:28;;;;;;;;;23.50;21.75;;;;;19.25;58.56;102353.06;5056999;28;45711;-82
2021/09/01 03:32:55;;;;;;;;;27.50;22.00;;;;;19.25;58.44;102358.31;5056892;28;45244;-83
2021/09/01 03:35:20;;;;;;;;;18.00;16.75;;;;;19.24;58.16;102353.03;5056814;28;45339;-82
2021/09/01 03:37:46;;;;;;;;;18.25;15.25;;;;;19.22;58.87;102345.06;5060844;28;45884;-81
2021/09/01 03:40:12;;;;;;;;;18.50;16.50;;;;;19.20;58.53;102343.25;5059544;28;45353;-81
2021/09/01 03:42:40;;;;;;;;;25.50;18.00;;;;;19.22;58.72;102342.44;5059799;28;45336;-82
2021/09/01 03:45:06;;;;;;;;;20.25;16.75;;;;;19.21;58.60;102340.69;5056482;28;45231;-82
2021/09/01 03:47:33;;;;;;;;;25.00;20.25;;;;;19.21;58.90;102348.56;5056214;28;45484;-82
2021/09/01 03:49:59;;;;;;;;;20.25;16.50;;;;;19.18;58.78;102351.09;5056695;28;45729;-82
2021/09/01 03:52:25;;;;;;;;;24.50;20.25;;;;;19.14;58.38;102355.34;5056659;28;45438;-82
2021/09/01 03:54:51;;;;;;;;;23.75;19.50;;;;;19.12;58.60;102353.47;5056533;28;45657;-82
2021/09/01 03:57:16;;;;;;;;;23.50;20.50;;;;;19.11;58.96;102356.97;5056593;28;46352;-83
2021/09/01 03:59:42;;;;;;;;;23.75;18.75;;;;;19.07;58.76;102360.31;5057384;28;45336;-82
2021/09/01 04:02:08;;;;;;;;;25.50;21.75;;;;;19.03;58.87;102359.34;5060279;28;45379;-82
2021/09/01 04:04:35;;;;;;;;;21.75;19.00;;;;;18.97;59.35;102357.38;5060290;28;45347;-82
2021/09/01 04:07:01;;;;;;;;;26.75;23.00;;;;;18.97;58.88;102359.09;5060963;28;46055;-82
2021/09/01 04:09:27;;;;;;;;;23.75;20.25;;;;;18.96;59.04;102359.94;5064445;28;45338;-82
2021/09/01 04:11:52;;;;;;;;;23.25;22.00;;;;;18.93;59.22;102354.56;5060117;28;45342;-82
2021/09/01 04:14:18;;;;;;;;;24.25;20.00;;;;;18.89;59.53;102358.81;5060165;28;45452;-81
2021/09/01 04:16:43;;;;;;;;;23.25;19.75;;;;;18.90;59.27;102354.44;5059410;28;45240;-81
2021/09/01 04:19:09;;;;;;;;;23.50;18.50;;;;;18.87;59.57;102358.75;5059946;28;45321;-81
2021/09/01 04:21:35;;;;;;;;;24.50;20.50;;;;;18.86;59.06;102349.09;5041861;28;45480;-82
2021/09/01 04:24:00;;;;;;;;;26.75;22.50;;;;;18.83;59.25;102355.97;5059832;28;45351;-82
2021/09/01 04:26:26;;;;;;;;;23.75;20.25;;;;;18.79;59.40;102356.72;5058623;28;45958;-82
2021/09/01 04:28:52;;;;;;;;;26.50;22.50;;;;;18.77;59.80;102355.75;5059588;28;45359;-81
2021/09/01 04:31:17;;;;;;;;;28.50;23.25;;;;;18.74;59.81;102356.50;5059517;28;45533;-82
2021/09/01 04:33:43;;;;;;;;;28.50;23.75;;;;;18.75;59.87;102342.56;5060154;28;45357;-82
2021/09/01 04:36:09;;;;;;;;;22.75;21.00;;;;;18.77;59.74;102345.25;5044325;28;45652;-82
2021/09/01 04:38:35;;;;;;;;;31.50;26.25;;;;;18.77;59.49;102353.13;5064147;28;45198;-82
2021/09/01 04:41:01;;;;;;;;;30.75;25.75;;;;;18.74;59.69;102360.88;5059217;28;45254;-83
2021/09/01 04:43:26;;;;;;;;;24.75;22.50;;;;;18.72;59.84;102360.84;5059833;28;45862;-82
2021/09/01 04:45:52;;;;;;;;;22.75;22.00;;;;;18.71;59.94;102362.56;5059332;28;46046;-82
2021/09/01 04:48:28;;;;;;;;;;;;;;;;;;;;;
2021/09/01 04:51:03;;;;;;;;;31.25;24.75;;;;;18.68;59.99;102372.06;5058743;28;67286;-84
2021/09/01 04:53:29;;;;;;;;;24.00;20.25;;;;;18.70;60.05;102376.50;5060075;28;45434;-82
2021/09/01 04:55:55;;;;;;;;;27.50;22.25;;;;;18.65;59.98;102374.56;5059253;28;45443;-83
2021/09/01 04:58:21;;;;;;;;;26.25;22.50;;;;;18.68;59.91;102375.56;5041342;28;45419;-83
2021/09/01 05:00:46;;;;;;;;;25.75;22.75;;;;;18.68;59.97;102379.91;5041523;28;45418;-83
2021/09/01 05:03:12;;;;;;;;;27.50;23.00;;;;;18.60;60.15;102368.25;5059984;28;45379;-83
2021/09/01 05:05:38;;;;;;;;;28.00;25.50;;;;;18.62;60.20;102377.97;5045111;28;46781;-83
2021/09/01 05:08:04;;;;;;;;;29.25;27.50;;;;;18.63;60.22;102368.34;5044945;28;45264;-83
2021/09/01 05:10:31;;;;;;;;;28.00;23.75;;;;;18.60;60.02;102369.16;5041491;28;45310;-82
2021/09/01 05:12:57;;;;;;;;;26.50;21.50;;;;;18.62;60.24;102372.72;5058062;28;45332;-81
2021/09/01 05:15:23;;;;;;;;;25.25;23.00;;;;;18.64;59.93;102376.31;5040462;28;47039;-82
2021/09/01 05:17:48;;;;;;;;;25.25;24.00;;;;;18.64;60.22;102373.69;5059308;28;45324;-81
2021/09/01 05:20:17;;;;;;;;;19.75;19.00;;;;;18.66;60.47;102368.47;5059217;28;45510;-80
2021/09/01 05:22:48;;;;;;;;;26.00;21.50;;;;;18.70;59.88;102373.88;5059056;28;45347;-80
2021/09/01 05:25:18;;;;;;;;;29.75;20.75;;;;;18.74;60.07;102372.25;5057950;28;45746;-81
2021/09/01 05:27:49;;;;;;;;;25.25;22.25;;;;;18.78;59.75;102379.41;5040516;28;45347;-81
2021/09/01 05:30:17;;;;;;;;;28.00;23.25;;;;;18.79;59.79;102375.97;5058795;28;45506;-80
2021/09/01 05:32:46;;;;;;;;;25.25;19.25;;;;;18.81;60.01;102378.63;5040921;28;45276;-82
2021/09/01 05:35:13;;;;;;;;;24.50;20.50;;;;;18.82;59.66;102381.31;5065152;28;45201;-81
2021/09/01 05:37:40;;;;;;;;;26.25;23.50;;;;;18.79;59.64;102378.59;5060228;28;45409;-82
2021/09/01 05:40:07;;;;;;;;;23.50;21.50;;;;;18.78;59.54;102382.03;5059546;28;45332;-81
2021/09/01 05:42:33;;;;;;;;;24.00;21.75;;;;;18.74;59.74;102385.38;5059189;28;45567;-81
2021/09/01 05:45:00;;;;;;;;;30.00;24.50;;;;;18.71;59.45;102385.28;5058395;28;45390;-81
2021/09/01 05:47:26;;;;;;;;;26.75;22.00;;;;;18.68;59.84;102387.78;5058022;28;45776;-81
2021/09/01 05:49:54;;;;;;;;;25.00;23.00;;;;;18.70;59.73;102384.38;5058459;28;45362;-82
2021/09/01 05:52:21;;;;;;;;;23.00;21.50;;;;;18.76;59.68;102395.94;5058126;28;45454;-81
2021/09/01 05:54:52;;;;;;;;;26.75;24.00;;;;;18.82;59.31;102397.06;5058431;28;45311;-81
2021/09/01 05:57:31;;;;;;;;;29.00;22.75;;;;;18.86;59.36;102400.69;5058081;28;45368;-80
2021/09/01 06:00:09;;;;;;;;;25.00;21.00;;;;;18.89;59.36;102392.94;5057528;28;45323;-81
2021/09/01 06:02:39;;;;;;;;;25.25;22.25;;;;;18.90;59.33;102396.44;5060265;28;45415;-81
2021/09/01 06:05:07;;;;;;;;;25.75;23.00;;;;;18.89;59.06;102398.19;5056186;28;45476;-81
2021/09/01 06:07:33;;;;;;;;;25.75;21.00;;;;;18.90;59.36;102399.06;5047563;28;45350;-81
2021/09/01 06:10:01;;;;;;;;;30.75;27.25;;;;;18.89;59.64;102398.19;5054694;28;45458;-81
2021/09/01 06:12:29;;;;;;;;;31.50;25.00;;;;;18.93;59.50;102393.94;5056882;28;45446;-81
2021/09/01 06:14:55;;;;;;;;;31.50;25.25;;;;;18.92;59.17;102384.28;5056810;28;46058;-80
2021/09/01 06:17:21;;;;;;;;;27.50;24.00;;;;;18.89;59.37;102387.69;5057042;28;45347;-80
2021/09/01 06:19:47;;;;;;;;;24.75;20.50;;;;;18.90;59.38;102386.81;5057284;28;45293;-80
2021/09/01 06:22:15;;;;;;;;;27.25;24.75;;;;;18.93;59.35;102378.19;5057284;28;45645;-80
2021/09/01 06:24:40;;;;;;;;;30.25;27.75;;;;;18.96;59.15;102373.97;5056405;28;45573;-80
2021/09/01 06:27:07;;;;;;;;;26.25;22.75;;;;;18.97;59.14;102374.84;5056826;28;45264;-81
2021/09/01 06:29:32;;;;;;;;;28.00;23.50;;;;;18.95;59.24;102384.44;5057527;28;45295;-80
2021/09/01 06:31:58;;;;;;;;;26.25;23.50;;;;;18.96;59.55;102378.31;5062027;28;45717;-80
2021/09/01 06:34:24;;;;;;;;;27.75;25.00;;;;;18.97;59.57;102375.75;5041892;28;47011;-80
2021/09/01 06:36:50;;;;;;;;;23.25;20.75;;;;;19.00;59.23;102375.88;5056518;28;45597;-76
2021/09/01 06:39:16;;;;;;;;;27.75;23.50;;;;;19.08;59.24;102380.50;5057516;28;45434;-79
2021/09/01 06:41:41;;;;;;;;;24.00;22.50;;;;;19.09;59.04;102377.91;5065963;28;45574;-78
2021/09/01 06:44:07;;;;;;;;;27.25;24.25;;;;;19.13;59.11;102377.19;5058276;28;45386;-86
2021/09/01 06:46:33;;;;;;;;;29.75;26.25;;;;;19.14;58.82;102378.06;5057844;28;45936;-86
2021/09/01 06:48:59;;;;;;;;;33.50;27.75;;;;;19.12;58.72;102367.53;5058588;28;45407;-83
2021/09/01 06:51:25;;;;;;;;;27.00;21.75;;;;;19.11;58.74;102377.97;5064269;28;45632;-84
2021/09/01 06:53:50;;;;;;;;;33.00;27.75;;;;;19.10;58.87;102379.69;5056624;28;46081;-80
2021/09/01 06:56:16;;;;;;;;;28.25;23.75;;;;;19.11;59.03;102383.22;5050123;28;45420;-81
2021/09/01 06:58:42;;;;;;;;;28.50;23.00;;;;;19.16;58.74;102377.31;5056629;28;45468;-79
2021/09/01 07:01:07;;;;;;;;;28.25;25.25;;;;;19.17;59.10;102380.81;5062757;28;45212;-80
2021/09/01 07:03:33;;;;;;;;;29.00;21.75;;;;;19.20;58.48;102386.16;5057713;28;45887;-80
2021/09/01 07:05:59;;;;;;;;;23.75;20.25;;;;;19.23;58.67;102382.75;5038574;28;45283;-79
2021/09/01 07:08:24;;;;;;;;;31.50;25.25;;;;;19.26;58.36;102383.75;5057360;28;45263;-80
2021/09/01 07:10:51;;;;;;;;;26.25;25.00;;;;;19.26;58.74;102375.88;5056396;28;45484;-81
2021/09/01 07:13:18;;;;;;;;;24.00;21.75;;;;;19.23;58.23;102372.25;5055027;28;45450;-79
2021/09/01 07:15:44;;;;;;;;;21.00;20.00;;;;;19.17;59.01;102370.31;5056419;28;45770;-80
2021/09/01 07:18:10;;;;;;;;;26.00;22.50;;;;;19.21;59.11;102368.66;5054299;28;45506;-79
2021/09/01 07:20:37;;;;;;;;;27.25;24.50;;;;;19.24;58.76;102361.78;5056867;28;45745;-80
2021/09/01 07:23:04;;;;;;;;;25.25;23.75;;;;;19.27;58.73;102367.16;5037981;28;45548;-81
2021/09/01 07:25:32;;;;;;;;;24.25;23.00;;;;;19.29;58.24;102368.09;5054927;28;45380;-81
2021/09/01 07:27:57;;;;;;;;;32.00;25.50;;;;;19.31;58.59;102373.41;5040910;28;45336;-80
2021/09/01 07:30:23;;;;;;;;;28.00;22.75;;;;;19.31;58.62;102363.78;5051472;28;45372;-81
2021/09/01 07:32:48;;;;;;;;;29.00;25.00;;;;;19.33;58.00;102362.09;5059860;28;46401;-81
2021/09/01 07:35:14;;;;;;;;;29.50;25.00;;;;;19.36;58.29;102363.94;5062608;28;45305;-81
2021/09/01 07:37:45;;;;;;;;;24.75;22.25;;;;;19.35;58.69;102362.16;5041589;28;45382;-81
2021/09/01 07:40:12;;;;;;;;;26.25;22.75;;;;;19.38;58.17;102362.28;5057027;28;45354;-81
2021/09/01 07:42:38;;;;;;;;;25.75;23.00;;;;;19.43;58.04;102365.94;5053566;28;46028;-81
2021/09/01 07:45:04;;;;;;;;;24.25;20.50;;;;;19.48;57.53;102360.81;5055762;28;45477;-81
2021/09/01 07:47:30;;;;;;;;;26.75;19.50;;;;;19.53;58.22;102376.72;5058203;28;45412;-81
2021/09/01 07:49:56;;;;;;;;;25.25;22.50;;;;;19.57;57.67;102369.00;5065100;28;45545;-81
2021/09/01 07:52:22;;;;;;;;;27.50;23.50;;;;;19.61;58.08;102376.16;5060041;28;45962;-81
2021/09/01 07:54:47;;;;;;;;;27.00;21.50;;;;;19.64;57.53;102376.25;5056119;28;46855;-80
2021/09/01 07:57:13;;;;;;;;;25.00;22.00;;;;;19.69;57.26;102373.78;5057573;28;45478;-80
2021/09/01 07:59:40;;;;;;;;;22.25;18.25;;;;;19.74;57.50;102377.44;5062302;28;45254;-80
2021/09/01 08:02:06;;;;;;;;;23.50;18.25;;;;;19.80;56.89;102376.72;5063985;28;45360;-81
2021/09/01 08:04:32;;;;;;;;;24.75;20.75;;;;;19.78;56.93;102366.19;5050112;28;45457;-77
2021/09/01 08:06:57;;;;;;;;;24.00;18.75;;;;;19.72;56.80;102368.59;5061592;28;45487;-85
2021/09/01 08:09:23;;;;;;;;;24.25;19.00;;;;;19.79;56.58;102362.72;5059254;28;45730;-80
2021/09/01 08:11:48;;;;;;;;;26.00;23.75;;;;;19.80;56.19;102361.88;5056990;28;45909;-80
2021/09/01 08:14:14;;;;;;;;;18.25;17.00;;;;;19.87;56.34;102368.22;5058208;28;45328;-79
2021/09/01 08:16:40;;;;;;;;;22.25;19.25;;;;;19.92;56.22;102363.13;5048251;28;45596;-78
2021/09/01 08:19:05;;;;;;;;;27.00;19.25;;;;;20.00;56.35;102368.59;5053706;28;45582;-81
2021/09/01 08:21:31;;;;;;;;;15.25;14.75;;;;;20.04;56.16;102368.75;5041700;28;45961;-81
2021/09/01 08:23:57;;;;;;;;;20.00;17.50;;;;;20.08;55.58;102362.75;5056077;28;45496;-88
2021/09/01 08:26:22;;;;;;;;;20.25;18.25;;;;;20.18;56.04;102368.28;5056326;28;45214;-79
2021/09/01 08:28:50;;;;;;;;;26.50;21.50;;;;;20.24;55.85;102360.59;5057158;28;45513;-77
2021/09/01 08:31:16;;;;;;;;;20.00;17.75;;;;;20.31;55.78;102352.03;5056260;28;46575;-78
2021/09/01 08:33:42;;;;;;;;;20.00;18.00;;;;;20.36;54.93;102354.78;5054812;28;45510;-78
2021/09/01 08:36:08;;;;;;;;;20.00;17.50;;;;;20.42;54.65;102358.50;5054793;28;45421;-78
2021/09/01 08:38:33;;;;;;;;;16.50;15.25;;;;;20.51;54.75;102360.50;5055978;28;45647;-79
2021/09/01 08:41:00;;;;;;;;;21.25;18.50;;;;;20.58;54.75;102356.28;5041414;28;46735;-84
2021/09/01 08:43:27;;;;;;;;;21.00;17.75;;;;;20.65;54.02;102362.59;5049505;28;45786;-78
2021/09/01 08:45:53;;;;;;;;;20.50;17.50;;;;;20.70;53.92;102358.38;5036423;28;45336;-74
2021/09/01 08:48:21;;;;;;;;;20.50;16.25;;;;;20.79;53.69;102368.28;5057814;28;45480;-77
2021/09/01 08:50:47;;;;;;;;;20.50;17.50;;;;;20.88;53.85;102360.66;5057146;28;45807;-79
2021/09/01 08:53:12;;;;;;;;;19.75;17.50;;;;;20.96;53.71;102360.84;5055979;28;46750;-76
2021/09/01 08:55:39;;;;;;;;;20.00;18.00;;;;;21.05;53.49;102360.19;5060628;28;45612;-76
2021/09/01 08:58:05;;;;;;;;;18.50;16.00;;;;;21.12;54.05;102368.31;5058583;28;45707;-77
2021/09/01 09:00:30;;;;;;;;;19.25;18.25;;;;;21.19;53.02;102369.34;5066661;28;46160;-76
2021/09/01 09:02:58;;;;;;;;;22.00;16.50;;;;;21.23;52.88;102371.19;5059865;28;45403;-76
2021/09/01 09:05:39;;;;;;;;;18.00;16.50;;;;;21.27;53.03;102375.72;5057231;28;45471;-76
2021/09/01 09:08:08;;;;;;;;;18.50;17.00;;;;;21.34;52.70;102369.72;5054621;28;45578;-75
2021/09/01 09:10:40;;;;;;;;;23.25;17.25;;;;;21.41;52.71;102370.78;5058024;28;46318;-75
2021/09/01 09:13:07;;;;;;;;;24.25;16.25;;;;;21.47;52.44;102368.31;5065594;28;45806;-76
2021/09/01 09:15:34;;;;;;;;;21.00;16.25;;;;;21.45;52.31;102366.47;5058575;28;45366;-76
2021/09/01 09:18:00;;;;;;;;;26.50;19.25;;;;;21.48;52.20;102356.00;5058012;28;45478;-75
2021/09/01 09:20:35;;;;;;;;;18.50;16.25;;;;;21.56;52.58;102356.22;5057017;28;46566;-77
2021/09/01 09:23:04;;;;;;;;;16.25;15.25;;;;;21.61;51.98;102360.78;5054731;28;46010;-79
2021/09/01 09:25:31;;;;;;;;;21.50;17.50;;;;;21.58;51.48;102358.00;5059074;28;45526;-77
2021/09/01 09:27:58;;;;;;;;;23.25;20.00;;;;;21.57;51.84;102361.50;5059153;28;45741;-76
2021/09/01 09:30:39;;;;;;;;;27.75;21.00;;;;;21.53;51.94;102362.31;5058663;28;45963;-77
2021/09/01 09:33:12;;;;;;;;;21.25;16.50;;;;;21.52;52.28;102362.25;5058025;28;45659;-76
2021/09/01 09:36:00;;;;;;;;;20.75;18.25;;;;;21.50;51.78;102357.81;5054772;28;45461;-75
2021/09/01 09:38:45;;;;;;;;;19.75;17.00;;;;;21.41;51.73;102364.63;5058426;28;45390;-75
2021/09/01 09:41:25;;;;;;;;;16.25;15.50;;;;;21.31;51.89;102352.97;5058934;28;45650;-76
2021/09/01 09:43:56;;;;;;;;;20.75;17.75;;;;;21.30;52.26;102352.09;5058321;28;46008;-75
2021/09/01 09:46:22;;;;;;;;;21.25;18.50;;;;;21.33;52.26;102352.13;5057996;28;45224;-75
2021/09/01 09:48:50;;;;;;;;;21.75;19.00;;;;;21.41;52.87;102346.19;5053628;28;46027;-75
2021/09/01 09:51:35;;;;;;;;;20.25;18.50;;;;;21.56;52.47;102354.44;5039111;28;47015;-74
2021/09/01 09:54:14;;;;;;;;;22.25;17.00;;;;;21.67;51.96;102352.13;5058671;28;45453;-75
2021/09/01 09:56:39;;;;;;;;;23.00;19.50;;;;;21.76;51.83;102352.31;5058410;28;45362;-80
2021/09/01 09:59:06;;;;;;;;;16.25;16.25;;;;;21.73;51.73;102354.00;5057682;28;45568;-77
2021/09/01 10:01:31;;;;;;;;;19.75;18.25;;;;;21.78;51.61;102347.06;5058266;28;45460;-77
2021/09/01 10:03:59;;;;;;;;;23.00;21.00;;;;;21.70;51.42;102349.56;5057536;28;45416;-77
2021/09/01 10:06:25;;;;;;;;;20.50;20.00;;;;;21.59;51.13;102357.19;5067617;28;45344;-78
2021/09/01 10:08:53;;;;;;;;;20.75;20.75;;;;;21.57;52.12;102355.34;5062137;28;45514;-77
2021/09/01 10:11:23;;;;;;;;;20.00;17.25;;;;;21.58;51.57;102347.47;5052144;28;46866;-79
2021/09/01 10:13:51;;;;;;;;;22.25;20.25;;;;;21.59;51.90;102354.56;5056780;28;45829;-77
2021/09/01 10:16:20;;;;;;;;;24.75;20.75;;;;;21.57;51.40;102350.97;5047384;28;45455;-76
2021/09/01 10:19:04;;;;;;;;;19.50;17.50;;;;;21.56;52.10;102343.91;5056979;28;45379;-77
2021/09/01 10:21:32;;;;;;;;;18.25;18.25;;;;;21.48;51.77;102341.13;5057833;28;45510;-86
2021/09/01 10:24:38;;;;;;;;;20.25;18.75;;;;;21.40;52.12;102344.41;5054275;28;45830;-87
2021/09/01 10:27:08;;;;;;;;;18.50;17.75;;;;;21.35;52.31;102344.28;5049706;28;46495;-82
2021/09/01 10:32:24;;;;;;;;;19.50;18.00;;;;;21.21;52.56;102340.41;5654481;22;46350;-89
2021/09/01 10:35:10;;;;;;;;;18.75;18.75;;;;;21.17;52.31;102340.31;5038713;28;45745;-92
2021/09/01 10:37:49;;;;;;;;;19.50;16.00;;;;;21.15;53.11;102334.16;5060151;28;45483;-91
2021/09/01 10:40:34;;;;;;;;;21.75;18.50;;;;;21.19;52.60;102333.34;5051364;28;45424;-90
2021/09/01 10:43:17;;;;;;;;;19.75;16.00;;;;;21.22;53.34;102315.84;5048922;28;45620;-91
2021/09/01 10:45:49;;;;;;;;;20.25;17.00;;;;;21.26;52.37;102315.97;5038482;28;45804;-86
2021/09/01 10:48:16;;;;;;;;;17.00;14.50;;;;;21.31;52.79;102311.72;5035337;28;45287;-88
2021/09/01 10:50:46;;;;;;;;;18.50;16.00;;;;;21.41;52.53;102310.19;5048667;28;45470;-81
2021/09/01 10:53:23;;;;;;;;;19.00;17.50;;;;;21.47;52.41;102309.44;5030545;28;47846;-82
2021/09/01 10:55:48;;;;;;;;;22.75;18.25;;;;;21.48;52.63;102309.50;5021658;28;45788;-83
2021/09/01 10:58:39;;;;;;;;;17.00;17.00;;;;;21.48;51.93;102312.13;5027277;28;45511;-79
2021/09/01 11:01:05;;;;;;;;;17.25;15.50;;;;;21.47;52.12;102302.44;5034229;28;45374;-79
2021/09/01 11:03:33;;;;;;;;;19.25;16.00;;;;;21.54;52.35;102302.56;5035959;28;45389;-79
2021/09/01 11:06:31;;;;;;;;;18.25;15.00;;;;;21.61;52.47;102302.78;5037598;28;45274;-83
2021/09/01 11:09:03;;;;;;;;;19.50;18.00;;;;;21.62;52.16;102296.66;5037654;28;45728;-80
2021/09/01 11:11:37;;;;;;;;;18.50;18.25;;;;;21.68;51.62;102295.00;5043418;28;45214;-80
2021/09/01 11:14:02;;;;;;;;;14.25;14.25;;;;;21.68;52.29;102289.72;5038669;28;45334;-83